createdAt,value
2019-05-26T18:05:23.729Z,88.20
2019-05-26T18:07:52.243Z,88.50
2019-05-26T18:10:20.966Z,90.50
2019-05-26T18:12:49.489Z,88.20
2019-05-26T18:15:18.045Z,90.90
2019-05-26T18:17:47.838Z,88.10
2019-05-26T18:20:16.467Z,90.00
2019-05-26T18:22:45.033Z,88.80
2019-05-26T18:25:13.528Z,89.40
2019-05-26T18:27:42.025Z,84.10
2019-05-26T18:30:10.655Z,85.90
2019-05-26T18:32:39.139Z,87.30
2019-05-26T18:35:07.936Z,86.10
2019-05-26T18:37:36.482Z,83.60
2019-05-26T18:40:05.618Z,85.00
2019-05-26T18:42:34.076Z,84.20
2019-05-26T18:45:02.618Z,81.00
2019-05-26T18:47:31.183Z,81.30
2019-05-26T18:49:59.812Z,77.20
2019-05-26T18:52:28.310Z,76.60
2019-05-26T18:54:56.833Z,79.20
2019-05-26T18:57:25.329Z,78.80
2019-05-26T18:59:53.927Z,77.50
2019-05-26T19:02:22.425Z,77.60
2019-05-26T19:04:50.901Z,75.80
2019-05-26T19:07:19.483Z,74.80
2019-05-26T19:09:47.991Z,74.80
2019-05-26T19:12:16.714Z,75.50
2019-05-26T19:14:45.256Z,74.10
2019-05-26T19:17:14.197Z,75.50
2019-05-26T19:19:42.751Z,76.60
2019-05-26T19:22:11.287Z,79.10
2019-05-26T19:24:39.752Z,77.40
2019-05-26T19:27:08.248Z,76.30
2019-05-26T19:29:36.738Z,77.00
2019-05-26T19:32:05.450Z,78.20
2019-05-26T19:34:33.976Z,76.70
2019-05-26T19:37:02.481Z,77.40
2019-05-26T19:39:30.935Z,78.20
2019-05-26T19:41:59.430Z,78.30
2019-05-26T19:44:27.990Z,78.90
2019-05-26T19:46:56.475Z,77.70
2019-05-26T19:49:24.981Z,79.80
2019-05-26T19:51:53.512Z,79.80
2019-05-26T19:54:22.066Z,79.00
2019-05-26T19:56:50.498Z,80.90
2019-05-26T19:59:19.017Z,78.80
2019-05-26T20:01:47.523Z,79.10
2019-05-26T20:04:16.017Z,79.40
2019-05-26T20:06:44.558Z,79.10
2019-05-26T20:09:13.076Z,80.00
2019-05-26T20:11:41.567Z,81.40
2019-05-26T20:14:10.091Z,83.20
2019-05-26T20:16:38.571Z,85.70
2019-05-26T20:19:07.070Z,86.70
2019-05-26T20:21:35.565Z,87.90
2019-05-26T20:24:04.601Z,88.80
2019-05-26T20:26:33.064Z,89.30
2019-05-26T20:29:01.589Z,90.30
2019-05-26T20:31:30.085Z,90.70
2019-05-26T20:33:58.586Z,91.20
2019-05-26T20:36:27.097Z,91.60
2019-05-26T20:38:55.650Z,91.80
2019-05-26T20:41:24.121Z,92.20
2019-05-26T20:43:52.628Z,92.60
2019-05-26T20:46:21.097Z,92.60
2019-05-26T20:48:49.636Z,92.90
2019-05-26T20:53:42.143Z,93.00
2019-05-26T20:56:09.427Z,93.60
2019-05-26T20:58:36.610Z,93.80
